Coldwater, MI

7:06 PM EDT on May 22, 2017 (GMT -0400)
Branch County Memorial

Weather History for KOEB - February, 2014

Change the Weather History Date:

Thursday, February 20, 2014

  Actual Average (KJYM) Record (KJYM)
Temperature  
Mean Temperature 39 °F -  
Max Temperature 48 °F 35 °F 58 °F (2016)
Min Temperature 30 °F 18 °F -17 °F (2015)
Degree Days  
Heating Degree Days 26    
Moisture  
Dew Point 33 °F    
Average Humidity 91    
Maximum Humidity 100    
Minimum Humidity 70    
Precipitation  
Precipitation 0.00 in - - ()
Sea Level Pressure  
Sea Level Pressure 29.69 in    
Wind  
Wind Speed 9 mph (SE)    
Max Wind Speed 24 mph    
Max Gust Speed 38 mph    
Visibility 5 miles    
Events Rain , Snow    
Averages and records for this station are not official NWS values.
T = Trace of Precipitation, MM = Missing Value Source: NWS Daily Summary

Daily Weather History Graph

Daily Weather History Graph

Search for Another Location

Airport or City:

Trip Planner

Search our weather history database for the weather conditions in past years. The results will help you decide how hot, cold, wet, or windy it might be!

Date:

Astronomy

Feb. 20, 2014 Rise Set
Actual Time 7:28 AM EST 6:19 PM EST
Civil Twilight 7:00 AM EST 6:47 PM EST
Nautical Twilight 6:28 AM EST 7:20 PM EST
Astronomical Twilight 5:55 AM EST 7:52 PM EST
Moon No Moon Rise 10:05 AM EST (2/20)
Length of Visible Light 11h 47m
Length of Day
10h 50m
Waning Gibbous, 71% of the Moon is Illuminated
Feb 20
Waning Gibbous
Feb 22
Last Quarter
Mar 1
New
Mar 8
First Quarter
Mar 16
Full

Hourly Weather History & Observations

Time (EST) Temp. Windchill Dew Point Humidity Pressure Visibility Wind Dir Wind Speed Gust Speed Precip Events Conditions
12:15 AM 31.1 °F - 28.0 °F 88% 30.02 in 7.0 mi Calm Calm - N/A   Clear
12:35 AM 31.1 °F - 27.7 °F 87% 30.02 in 7.0 mi Calm Calm - N/A   Clear
12:55 AM 30.6 °F - 27.7 °F 89% 30.03 in 5.0 mi Calm Calm - N/A   Clear
1:15 AM 30.0 °F 25.2 °F 28.0 °F 92% 30.02 in 5.0 mi SE 4.6 mph - N/A   Scattered Clouds
1:35 AM 30.9 °F 27.5 °F 28.4 °F 90% 30.01 in 5.0 mi SE 3.5 mph - N/A   Scattered Clouds
1:55 AM 31.8 °F 26.2 °F 29.3 °F 90% 30.01 in 7.0 mi SSE 5.8 mph - N/A   Scattered Clouds
2:15 AM 32.0 °F 27.5 °F 29.1 °F 89% 30.00 in 7.0 mi SSE 4.6 mph - N/A   Mostly Cloudy
2:35 AM 32.2 °F 25.8 °F 29.1 °F 88% 29.99 in 7.0 mi SE 6.9 mph - N/A   Scattered Clouds
2:55 AM 32.5 °F 26.2 °F 29.3 °F 88% 29.98 in 7.0 mi SE 6.9 mph - N/A   Clear
3:15 AM 32.9 °F 25.3 °F 29.3 °F 87% 29.97 in 7.0 mi SE 9.2 mph - N/A   Clear
3:35 AM 33.3 °F 25.7 °F 30.0 °F 88% 29.95 in 7.0 mi SE 9.2 mph - N/A   Clear
3:55 AM 33.1 °F 25.5 °F 30.2 °F 89% 29.95 in 7.0 mi SE 9.2 mph - N/A   Clear
4:15 AM 32.9 °F 24.7 °F 30.2 °F 90% 29.93 in 7.0 mi SE 10.4 mph - N/A   Clear
4:34 AM 33.6 °F 26.2 °F 30.0 °F 87% 29.92 in 7.0 mi SE 9.2 mph - N/A   Clear
4:55 AM 33.8 °F 27.7 °F 29.5 °F 84% 29.89 in 7.0 mi East 6.9 mph - N/A   Clear
5:15 AM 34.3 °F 27.7 °F 29.5 °F 82% 29.88 in 7.0 mi ESE 8.1 mph - N/A   Clear
5:35 AM 34.3 °F 27.7 °F 29.5 °F 82% 29.89 in 10.0 mi SE 8.1 mph - N/A   Clear
5:55 AM 33.8 °F 28.6 °F 28.8 °F 82% 29.88 in 7.0 mi SE 5.8 mph - N/A   Clear
6:14 AM 33.6 °F 27.5 °F 27.5 °F 78% 29.87 in 10.0 mi SE 6.9 mph - N/A   Clear
6:35 AM 33.4 °F 25.9 °F 26.6 °F 76% 29.86 in 10.0 mi SE 9.2 mph - N/A   Clear
6:55 AM 33.8 °F 25.8 °F 25.9 °F 73% 29.83 in 10.0 mi ESE 10.4 mph 16.1 mph N/A   Clear
7:14 AM 34.2 °F 28.2 °F 25.3 °F 70% 29.84 in 10.0 mi ESE 6.9 mph - N/A   Scattered Clouds
7:35 AM 33.8 °F - 25.5 °F 72% 29.83 in 10.0 mi North - - N/A   Mostly Cloudy
7:55 AM 34.5 °F 25.7 °F 25.9 °F 71% 29.80 in 10.0 mi SE 12.7 mph 18.4 mph N/A   Overcast
8:15 AM 35.1 °F 25.2 °F 27.3 °F 73% 29.79 in 7.0 mi SSE 16.1 mph 28.8 mph N/A Rain Light Rain
8:35 AM 35.6 °F 25.5 °F 27.7 °F 73% 29.78 in 3.0 mi ESE 17.3 mph 25.3 mph N/A Snow Light Snow
8:55 AM 35.1 °F 25.5 °F 29.8 °F 81% 29.80 in 2.5 mi SE 15.0 mph 25.3 mph N/A Snow Light Snow
9:15 AM 34.3 °F 25.9 °F 30.2 °F 85% 29.80 in 2.5 mi ESE 11.5 mph 20.7 mph N/A Snow Light Snow
9:35 AM 34.0 °F 24.6 °F 31.3 °F 90% 29.79 in 2.0 mi East 13.8 mph 17.3 mph N/A Snow Light Snow
9:55 AM 33.8 °F 25.3 °F 32.0 °F 93% 29.81 in 1.2 mi ESE 11.5 mph - N/A Snow Light Snow
10:15 AM 33.4 °F 24.8 °F 32.0 °F 94% 29.79 in 1.8 mi East 11.5 mph - N/A Snow Light Snow
10:35 AM 33.3 °F 23.7 °F 32.2 °F 96% 29.76 in 2.0 mi East 13.8 mph - N/A Snow Light Snow
10:55 AM 33.4 °F 22.0 °F 32.4 °F 96% 29.74 in 1.5 mi East 19.6 mph 25.3 mph N/A Snow Light Snow
11:15 AM 33.6 °F 23.7 °F 32.7 °F 96% 29.73 in 1.5 mi East 15.0 mph 25.3 mph N/A Snow Light Snow
11:35 AM 34.0 °F 25.0 °F 33.3 °F 97% 29.71 in 2.0 mi East 12.7 mph 17.3 mph N/A Snow Light Snow
11:55 AM 34.5 °F 27.3 °F 33.8 °F 97% 29.70 in 3.0 mi ESE 9.2 mph - N/A   Overcast
12:15 PM 35.2 °F 27.1 °F 34.3 °F 97% 29.68 in 5.0 mi ESE 11.5 mph 19.6 mph N/A Rain Light Rain
12:35 PM 35.6 °F 26.2 °F 34.7 °F 97% 29.66 in 5.0 mi ESE 15.0 mph 21.9 mph N/A Rain Light Rain
12:54 PM 35.4 °F 28.4 °F 34.3 °F 96% 29.64 in 5.0 mi ESE 9.2 mph - N/A Rain Light Rain
1:15 PM 35.1 °F 26.4 °F 34.2 °F 97% 29.65 in 10.0 mi SE 12.7 mph 19.6 mph N/A   Overcast
1:35 PM 35.2 °F 27.1 °F 34.2 °F 96% 29.63 in 7.0 mi SE 11.5 mph 18.4 mph N/A   Overcast
1:54 PM 35.4 °F 26.4 °F 34.5 °F 97% 29.62 in 5.0 mi ESE 13.8 mph - N/A   Overcast
2:15 PM 35.1 °F 26.9 °F 34.2 °F 97% 29.61 in 4.0 mi ESE 11.5 mph 16.1 mph N/A   Overcast
2:35 PM 35.2 °F 28.1 °F 34.7 °F 98% 29.60 in 2.5 mi SE 9.2 mph 19.6 mph N/A Snow Light Snow
2:55 PM 35.6 °F 26.2 °F 34.7 °F 97% 29.59 in 3.0 mi ESE 15.0 mph - N/A   Overcast
3:15 PM 35.8 °F 27.3 °F 35.2 °F 98% 29.57 in 3.0 mi ESE 12.7 mph - N/A   Overcast
3:35 PM 36.1 °F 26.9 °F 35.6 °F 98% 29.57 in 2.5 mi SE 15.0 mph 21.9 mph N/A   Overcast
3:55 PM 36.3 °F 27.5 °F 35.8 °F 98% 29.56 in 2.0 mi SE 13.8 mph 20.7 mph N/A Rain Light Rain
4:15 PM 36.0 °F 26.7 °F 35.6 °F 99% 29.55 in 2.0 mi SE 15.0 mph 19.6 mph N/A Rain Light Rain
4:35 PM 36.0 °F 26.3 °F 35.6 °F 99% 29.54 in 1.8 mi SE 16.1 mph 21.9 mph N/A Snow Light Snow
4:55 PM 36.0 °F 26.3 °F 35.4 °F 98% 29.53 in 2.0 mi SE 16.1 mph 24.2 mph N/A Snow Light Snow
5:15 PM 36.3 °F 27.1 °F 35.8 °F 98% 29.51 in 2.5 mi ESE 15.0 mph 20.7 mph N/A Rain Light Rain
5:35 PM 36.5 °F 27.8 °F 35.8 °F 97% 29.50 in 1.8 mi SE 13.8 mph - N/A   Overcast
5:55 PM 36.3 °F 26.8 °F 36.0 °F 99% 29.49 in 4.0 mi SE 16.1 mph - N/A Rain Rain
6:15 PM 36.7 °F 27.6 °F 36.3 °F 99% 29.47 in 2.0 mi SE 15.0 mph - N/A Snow Light Snow
6:35 PM 37.4 °F 29.3 °F 36.9 °F 98% 29.47 in 5.0 mi SE 12.7 mph - N/A Rain Light Rain
6:55 PM 38.3 °F 30.9 °F 37.8 °F 98% 29.46 in 5.0 mi SE 11.5 mph 19.6 mph N/A   Overcast
7:15 PM 39.0 °F 30.6 °F 38.5 °F 98% 29.45 in 3.0 mi SE 15.0 mph - N/A   Overcast
7:34 PM 39.6 °F 31.7 °F 39.2 °F 99% 29.42 in 3.0 mi SE 13.8 mph 18.4 mph N/A   Overcast
7:55 PM 39.9 °F 31.1 °F 39.6 °F 99% 29.41 in 1.5 mi SE 17.3 mph 23.0 mph N/A   Overcast
8:15 PM 40.5 °F 32.1 °F 40.3 °F 99% 29.40 in 1.2 mi SE 16.1 mph 24.2 mph N/A   Overcast
8:35 PM 40.8 °F 33.7 °F 40.6 °F 99% 29.39 in 2.0 mi SE 12.7 mph 18.4 mph N/A   Overcast
8:55 PM 41.5 °F 35.9 °F 41.4 °F 99% 29.38 in 2.5 mi SSE 9.2 mph - N/A   Overcast
9:14 PM 41.4 °F 33.3 °F 41.2 °F 99% 29.36 in 3.0 mi SE 16.1 mph 19.6 mph N/A Rain Light Rain
9:35 PM 43.5 °F 36.7 °F 43.5 °F 100% 29.36 in 3.0 mi South 13.8 mph 28.8 mph N/A   Unknown
9:55 PM 45.3 °F 41.1 °F 45.1 °F 99% 29.37 in 4.0 mi SSW 8.1 mph - N/A   Mostly Cloudy
10:15 PM 47.8 °F - 47.1 °F 97% 29.37 in 10.0 mi South 12.7 mph 21.9 mph N/A   Overcast
10:35 PM 48.0 °F - 47.3 °F 97% 29.37 in 7.0 mi SSW 12.7 mph 19.6 mph N/A   Overcast
10:55 PM 45.5 °F 37.1 °F 41.2 °F 85% 29.39 in 10.0 mi SW 23.0 mph 32.2 mph N/A   Overcast
11:15 PM 43.3 °F 34.0 °F 37.4 °F 80% 29.41 in 10.0 mi SW 24.2 mph 34.5 mph N/A   Mostly Cloudy
11:35 PM 39.9 °F 29.5 °F 34.3 °F 80% 29.41 in 10.0 mi SW 24.2 mph 38.0 mph N/A   Scattered Clouds
11:55 PM 38.3 °F 27.3 °F 33.1 °F 81% 29.43 in 10.0 mi SW 24.2 mph 33.4 mph N/A   Mostly Cloudy